sensor_id;sensor_type;location;lat;lon;timestamp;temperature;humidity
10143;DHT22;5112;54.088;13.446;2023-11-22T00:09:09;3.10;99.90
10143;DHT22;5112;54.088;13.446;2023-11-22T00:19:12;3.10;99.90
10143;DHT22;5112;54.088;13.446;2023-11-22T00:29:16;3.20;99.90
10143;DHT22;5112;54.088;13.446;2023-11-22T00:39:19;3.30;99.90
10143;DHT22;5112;54.088;13.446;2023-11-22T00:49:20;3.30;99.90
10143;DHT22;5112;54.088;13.446;2023-11-22T00:59:24;3.30;99.90
10143;DHT22;5112;54.088;13.446;2023-11-22T01:09:27;3.00;99.90
10143;DHT22;5112;54.088;13.446;2023-11-22T01:19:30;2.90;99.90
10143;DHT22;5112;54.088;13.446;2023-11-22T01:29:32;2.90;99.90
10143;DHT22;5112;54.088;13.446;2023-11-22T01:39:39;2.80;99.90
10143;DHT22;5112;54.088;13.446;2023-11-22T01:49:41;2.80;99.90
10143;DHT22;5112;54.088;13.446;2023-11-22T01:59:45;2.70;99.90
10143;DHT22;5112;54.088;13.446;2023-11-22T02:09:47;2.60;99.90
10143;DHT22;5112;54.088;13.446;2023-11-22T02:19:51;2.40;99.90
10143;DHT22;5112;54.088;13.446;2023-11-22T02:29:54;2.40;99.90
10143;DHT22;5112;54.088;13.446;2023-11-22T02:40:04;2.40;99.90
10143;DHT22;5112;54.088;13.446;2023-11-22T02:50:09;2.40;99.90
10143;DHT22;5112;54.088;13.446;2023-11-22T03:00:12;2.40;99.90
10143;DHT22;5112;54.088;13.446;2023-11-22T03:10:16;2.40;99.90
10143;DHT22;5112;54.088;13.446;2023-11-22T03:20:18;2.40;99.90
10143;DHT22;5112;54.088;13.446;2023-11-22T03:30:21;2.40;99.90
10143;DHT22;5112;54.088;13.446;2023-11-22T03:40:23;2.40;99.90
10143;DHT22;5112;54.088;13.446;2023-11-22T03:50:26;2.20;99.90
10143;DHT22;5112;54.088;13.446;2023-11-22T04:00:27;1.90;99.90
10143;DHT22;5112;54.088;13.446;2023-11-22T04:10:30;1.90;99.90
10143;DHT22;5112;54.088;13.446;2023-11-22T04:20:32;1.80;99.90
10143;DHT22;5112;54.088;13.446;2023-11-22T04:30:35;1.80;99.90
10143;DHT22;5112;54.088;13.446;2023-11-22T04:40:37;1.90;99.90
10143;DHT22;5112;54.088;13.446;2023-11-22T04:50:40;1.90;99.90
10143;DHT22;5112;54.088;13.446;2023-11-22T05:00:41;1.60;99.90
10143;DHT22;5112;54.088;13.446;2023-11-22T05:10:44;1.60;99.90
10143;DHT22;5112;54.088;13.446;2023-11-22T05:20:46;1.50;99.90
10143;DHT22;5112;54.088;13.446;2023-11-22T05:30:50;1.50;99.90
10143;DHT22;5112;54.088;13.446;2023-11-22T05:40:51;1.30;99.90
10143;DHT22;5112;54.088;13.446;2023-11-22T05:50:54;1.20;99.90
10143;DHT22;5112;54.088;13.446;2023-11-22T06:00:56;1.10;99.90
10143;DHT22;5112;54.088;13.446;2023-11-22T06:10:59;1.00;99.90
10143;DHT22;5112;54.088;13.446;2023-11-22T06:21:01;1.00;99.90
10143;DHT22;5112;54.088;13.446;2023-11-22T06:31:04;1.00;99.90
10143;DHT22;5112;54.088;13.446;2023-11-22T06:41:05;1.00;99.90
10143;DHT22;5112;54.088;13.446;2023-11-22T06:51:08;0.90;99.90
10143;DHT22;5112;54.088;13.446;2023-11-22T07:01:10;0.90;99.90
10143;DHT22;5112;54.088;13.446;2023-11-22T07:11:13;0.90;99.90
10143;DHT22;5112;54.088;13.446;2023-11-22T07:21:23;0.90;99.90
10143;DHT22;5112;54.088;13.446;2023-11-22T07:31:26;0.90;99.90
10143;DHT22;5112;54.088;13.446;2023-11-22T07:41:29;1.00;99.90
10143;DHT22;5112;54.088;13.446;2023-11-22T07:51:33;1.20;99.90
10143;DHT22;5112;54.088;13.446;2023-11-22T08:01:35;1.40;99.90
10143;DHT22;5112;54.088;13.446;2023-11-22T08:11:38;1.70;99.90
10143;DHT22;5112;54.088;13.446;2023-11-22T08:21:39;1.90;99.90
10143;DHT22;5112;54.088;13.446;2023-11-22T08:31:42;2.30;99.90
10143;DHT22;5112;54.088;13.446;2023-11-22T08:41:44;2.70;99.90
10143;DHT22;5112;54.088;13.446;2023-11-22T08:51:47;2.90;99.90
10143;DHT22;5112;54.088;13.446;2023-11-22T09:01:48;3.40;99.90
10143;DHT22;5112;54.088;13.446;2023-11-22T09:11:51;4.00;99.90
10143;DHT22;5112;54.088;13.446;2023-11-22T09:21:53;4.10;99.90
10143;DHT22;5112;54.088;13.446;2023-11-22T09:31:56;4.10;99.90
10143;DHT22;5112;54.088;13.446;2023-11-22T09:41:58;3.90;99.90
10143;DHT22;5112;54.088;13.446;2023-11-22T09:52:04;3.90;99.90
10143;DHT22;5112;54.088;13.446;2023-11-22T10:02:09;3.90;99.90
10143;DHT22;5112;54.088;13.446;2023-11-22T10:12:13;4.00;99.90
10143;DHT22;5112;54.088;13.446;2023-11-22T10:22:15;3.90;99.90
10143;DHT22;5112;54.088;13.446;2023-11-22T10:32:19;4.00;99.90
10143;DHT22;5112;54.088;13.446;2023-11-22T10:42:21;3.90;99.90
10143;DHT22;5112;54.088;13.446;2023-11-22T10:52:27;3.90;99.90
10143;DHT22;5112;54.088;13.446;2023-11-22T11:02:29;4.10;99.90
10143;DHT22;5112;54.088;13.446;2023-11-22T11:12:33;4.10;99.90
10143;DHT22;5112;54.088;13.446;2023-11-22T11:22:35;4.30;99.90
10143;DHT22;5112;54.088;13.446;2023-11-22T11:32:38;4.40;99.90
10143;DHT22;5112;54.088;13.446;2023-11-22T11:42:43;4.40;99.90
10143;DHT22;5112;54.088;13.446;2023-11-22T11:52:47;4.20;99.90
10143;DHT22;5112;54.088;13.446;2023-11-22T12:02:49;4.40;99.90
10143;DHT22;5112;54.088;13.446;2023-11-22T12:12:52;4.50;99.90
10143;DHT22;5112;54.088;13.446;2023-11-22T12:22:53;4.30;99.90
10143;DHT22;5112;54.088;13.446;2023-11-22T12:32:57;4.20;99.90
10143;DHT22;5112;54.088;13.446;2023-11-22T12:42:59;4.00;99.90
10143;DHT22;5112;54.088;13.446;2023-11-22T12:53:09;4.10;99.90
10143;DHT22;5112;54.088;13.446;2023-11-22T13:03:14;4.00;99.90
10143;DHT22;5112;54.088;13.446;2023-11-22T13:13:17;4.00;99.90
10143;DHT22;5112;54.088;13.446;2023-11-22T13:23:19;3.90;99.90
10143;DHT22;5112;54.088;13.446;2023-11-22T13:33:22;3.70;99.90
10143;DHT22;5112;54.088;13.446;2023-11-22T13:43:24;3.60;99.90
10143;DHT22;5112;54.088;13.446;2023-11-22T13:53:28;3.70;99.90
10143;DHT22;5112;54.088;13.446;2023-11-22T14:03:34;3.60;99.90
10143;DHT22;5112;54.088;13.446;2023-11-22T14:13:37;3.50;99.90
10143;DHT22;5112;54.088;13.446;2023-11-22T14:23:40;3.50;99.90
10143;DHT22;5112;54.088;13.446;2023-11-22T14:33:43;3.30;99.90
10143;DHT22;5112;54.088;13.446;2023-11-22T14:43:44;3.30;99.90
10143;DHT22;5112;54.088;13.446;2023-11-22T14:53:47;3.20;99.90
10143;DHT22;5112;54.088;13.446;2023-11-22T15:03:49;3.10;99.90
10143;DHT22;5112;54.088;13.446;2023-11-22T15:13:55;3.20;99.90
10143;DHT22;5112;54.088;13.446;2023-11-22T15:23:57;3.10;99.90
10143;DHT22;5112;54.088;13.446;2023-11-22T15:34:00;3.00;99.90
10143;DHT22;5112;54.088;13.446;2023-11-22T15:44:02;3.00;99.90
10143;DHT22;5112;54.088;13.446;2023-11-22T15:54:06;3.00;99.90
10143;DHT22;5112;54.088;13.446;2023-11-22T16:04:08;3.00;99.90
10143;DHT22;5112;54.088;13.446;2023-11-22T16:14:13;3.00;99.90
10143;DHT22;5112;54.088;13.446;2023-11-22T16:24:15;2.90;99.90
10143;DHT22;5112;54.088;13.446;2023-11-22T16:34:18;2.90;99.90
10143;DHT22;5112;54.088;13.446;2023-11-22T16:44:21;3.00;99.90
10143;DHT22;5112;54.088;13.446;2023-11-22T16:54:24;2.90;99.90
10143;DHT22;5112;54.088;13.446;2023-11-22T17:04:27;2.90;99.90
10143;DHT22;5112;54.088;13.446;2023-11-22T17:14:30;2.90;99.90
10143;DHT22;5112;54.088;13.446;2023-11-22T17:24:32;2.90;99.90
10143;DHT22;5112;54.088;13.446;2023-11-22T17:34:35;2.90;99.90
10143;DHT22;5112;54.088;13.446;2023-11-22T17:44:36;2.90;99.90
10143;DHT22;5112;54.088;13.446;2023-11-22T17:54:40;2.80;99.90
10143;DHT22;5112;54.088;13.446;2023-11-22T18:04:44;2.60;99.90
10143;DHT22;5112;54.088;13.446;2023-11-22T18:14:46;2.70;99.90
10143;DHT22;5112;54.088;13.446;2023-11-22T18:24:48;2.70;99.90
10143;DHT22;5112;54.088;13.446;2023-11-22T18:34:51;2.70;99.90
10143;DHT22;5112;54.088;13.446;2023-11-22T18:44:53;2.80;99.90
10143;DHT22;5112;54.088;13.446;2023-11-22T18:54:56;2.80;99.90
10143;DHT22;5112;54.088;13.446;2023-11-22T19:04:58;2.80;99.90
10143;DHT22;5112;54.088;13.446;2023-11-22T19:15:06;2.80;99.90
10143;DHT22;5112;54.088;13.446;2023-11-22T19:25:08;2.80;99.90
10143;DHT22;5112;54.088;13.446;2023-11-22T19:35:12;2.70;99.90
10143;DHT22;5112;54.088;13.446;2023-11-22T19:45:14;2.60;99.90
10143;DHT22;5112;54.088;13.446;2023-11-22T19:55:17;2.60;99.90
10143;DHT22;5112;54.088;13.446;2023-11-22T20:05:20;2.50;99.90
10143;DHT22;5112;54.088;13.446;2023-11-22T20:15:23;2.70;99.90
10143;DHT22;5112;54.088;13.446;2023-11-22T20:25:25;2.50;99.90
10143;DHT22;5112;54.088;13.446;2023-11-22T20:35:28;2.50;99.90
10143;DHT22;5112;54.088;13.446;2023-11-22T20:45:30;2.40;99.90
10143;DHT22;5112;54.088;13.446;2023-11-22T20:55:33;2.40;99.90
10143;DHT22;5112;54.088;13.446;2023-11-22T21:05:35;2.30;99.90
10143;DHT22;5112;54.088;13.446;2023-11-22T21:15:38;2.30;99.90
10143;DHT22;5112;54.088;13.446;2023-11-22T21:25:39;2.20;99.90
10143;DHT22;5112;54.088;13.446;2023-11-22T21:35:42;2.20;99.90
10143;DHT22;5112;54.088;13.446;2023-11-22T21:45:44;2.10;99.90
10143;DHT22;5112;54.088;13.446;2023-11-22T21:55:47;2.20;99.90
10143;DHT22;5112;54.088;13.446;2023-11-22T22:05:49;2.20;99.90
10143;DHT22;5112;54.088;13.446;2023-11-22T22:15:52;2.20;99.90
10143;DHT22;5112;54.088;13.446;2023-11-22T22:25:54;2.10;99.90
10143;DHT22;5112;54.088;13.446;2023-11-22T22:35:56;2.20;99.90
10143;DHT22;5112;54.088;13.446;2023-11-22T22:45:58;2.20;99.90
10143;DHT22;5112;54.088;13.446;2023-11-22T22:56:01;2.30;99.90
10143;DHT22;5112;54.088;13.446;2023-11-22T23:06:03;2.10;99.90
10143;DHT22;5112;54.088;13.446;2023-11-22T23:16:07;2.10;99.90
10143;DHT22;5112;54.088;13.446;2023-11-22T23:26:09;2.20;99.90
10143;DHT22;5112;54.088;13.446;2023-11-22T23:36:12;2.40;99.90
10143;DHT22;5112;54.088;13.446;2023-11-22T23:46:14;2.50;99.90
10143;DHT22;5112;54.088;13.446;2023-11-22T23:56:17;2.80;99.90
